createdAt,value
2022-12-14T00:00:47.308Z,15.77
2022-12-14T00:05:53.467Z,15.55
2022-12-14T00:10:59.854Z,15.88
2022-12-14T00:16:06.051Z,15.09
2022-12-14T00:21:12.099Z,16.54
2022-12-14T00:26:18.313Z,15.54
2022-12-14T00:31:24.822Z,15.36
2022-12-14T00:36:30.949Z,15.62
2022-12-14T00:41:37.021Z,14.98
2022-12-14T00:46:43.253Z,15.07
2022-12-14T00:51:49.407Z,15.54
2022-12-14T00:56:55.659Z,15.26
2022-12-14T01:02:01.861Z,16.00
2022-12-14T01:07:07.960Z,16.32
2022-12-14T01:12:14.433Z,15.44
2022-12-14T01:17:20.628Z,15.89
2022-12-14T01:22:26.772Z,15.52
2022-12-14T01:27:33.012Z,15.69
2022-12-14T01:32:39.046Z,15.25
2022-12-14T01:37:45.259Z,14.98
2022-12-14T01:42:50.908Z,14.30
2022-12-14T01:47:57.377Z,15.20
2022-12-14T01:53:03.440Z,15.08
2022-12-14T01:58:09.601Z,15.53
2022-12-14T02:03:15.982Z,14.48
2022-12-14T02:08:22.264Z,13.84
2022-12-14T02:13:28.766Z,14.50
2022-12-14T02:18:34.212Z,13.93
2022-12-14T02:23:40.327Z,13.54
2022-12-14T02:28:46.551Z,13.74
2022-12-14T02:33:52.641Z,13.79
2022-12-14T02:38:59.042Z,14.15
2022-12-14T02:44:05.524Z,13.51
2022-12-14T02:49:11.724Z,13.22
2022-12-14T02:54:17.799Z,13.76
2022-12-14T02:59:24.540Z,13.49
2022-12-14T03:04:30.667Z,13.46
2022-12-14T03:09:36.854Z,12.93
2022-12-14T03:14:42.980Z,12.97
2022-12-14T03:19:49.165Z,13.06
2022-12-14T03:24:55.289Z,12.88
2022-12-14T03:30:01.913Z,12.59
2022-12-14T03:35:08.151Z,13.63
2022-12-14T03:40:14.801Z,12.63
2022-12-14T03:45:20.850Z,12.80
2022-12-14T03:50:27.121Z,12.62
2022-12-14T03:55:33.267Z,12.77
2022-12-14T04:00:39.836Z,12.34
2022-12-14T04:05:49.051Z,12.63
2022-12-14T04:10:51.559Z,12.61
2022-12-14T04:15:58.033Z,13.20
2022-12-14T04:21:04.226Z,12.85
2022-12-14T04:26:10.311Z,12.45
2022-12-14T04:31:16.561Z,12.49
2022-12-14T04:36:22.540Z,13.18
2022-12-14T04:41:28.724Z,12.05
2022-12-14T04:46:38.951Z,12.27
2022-12-14T04:51:40.945Z,13.47
2022-12-14T04:56:47.013Z,12.78
2022-12-14T05:01:53.290Z,12.55
2022-12-14T05:06:59.667Z,12.04
2022-12-14T05:12:06.045Z,12.61
2022-12-14T05:17:12.200Z,12.42
2022-12-14T05:22:18.607Z,12.13
2022-12-14T05:27:24.704Z,12.48
2022-12-14T05:32:30.882Z,12.07
2022-12-14T05:37:37.151Z,12.13
2022-12-14T05:42:46.098Z,12.66
2022-12-14T05:47:49.019Z,12.77
2022-12-14T05:52:55.637Z,12.75
2022-12-14T05:58:02.083Z,12.82
2022-12-14T06:03:08.389Z,12.28
2022-12-14T06:08:15.340Z,12.30
2022-12-14T06:13:21.528Z,11.94
2022-12-14T06:18:27.594Z,12.90
2022-12-14T06:23:33.922Z,13.32
2022-12-14T06:28:40.420Z,12.22
2022-12-14T06:33:46.571Z,12.44
2022-12-14T06:38:52.649Z,12.15
2022-12-14T06:43:59.562Z,12.37
2022-12-14T06:49:05.759Z,11.97
2022-12-14T06:54:11.966Z,12.63
2022-12-14T06:59:18.095Z,12.80
2022-12-14T07:04:24.208Z,12.33
2022-12-14T07:09:30.282Z,12.86
2022-12-14T07:14:37.289Z,13.25
2022-12-14T07:19:44.205Z,13.23
2022-12-14T07:24:49.965Z,12.38
2022-12-14T07:29:56.018Z,12.41
2022-12-14T07:35:02.170Z,12.50
2022-12-14T07:40:08.225Z,12.34
2022-12-14T07:45:14.373Z,12.68
2022-12-14T07:50:20.430Z,12.57
2022-12-14T07:55:26.601Z,13.63
2022-12-14T08:00:32.653Z,13.60
2022-12-14T08:05:38.820Z,15.19
2022-12-14T08:10:44.873Z,17.26
2022-12-14T08:15:51.170Z,19.81
2022-12-14T08:20:57.315Z,15.77
2022-12-14T08:26:03.557Z,13.72
2022-12-14T08:31:09.815Z,13.22
2022-12-14T08:36:15.927Z,12.60
2022-12-14T08:41:22.026Z,12.47
2022-12-14T08:46:28.216Z,13.52
2022-12-14T08:51:34.245Z,14.23
2022-12-14T08:56:40.546Z,13.39
2022-12-14T09:01:46.811Z,13.77
2022-12-14T09:06:52.858Z,13.60
2022-12-14T09:11:59.021Z,13.47
2022-12-14T09:17:05.298Z,13.53
2022-12-14T09:22:11.583Z,13.14
2022-12-14T09:27:17.612Z,12.74
2022-12-14T09:32:23.757Z,13.27
2022-12-14T09:37:29.908Z,11.66
2022-12-14T09:42:35.964Z,12.65
2022-12-14T09:47:42.205Z,13.38
2022-12-14T09:52:48.262Z,14.71
2022-12-14T09:57:54.496Z,13.80
2022-12-14T10:03:06.368Z,13.93
2022-12-14T10:08:06.547Z,13.01
2022-12-14T10:13:12.609Z,13.26
2022-12-14T10:18:49.404Z,14.20
2022-12-14T10:23:24.450Z,12.54
2022-12-14T10:28:30.946Z,13.36
2022-12-14T10:33:36.285Z,13.64
2022-12-14T10:38:42.443Z,14.37
2022-12-14T10:43:48.499Z,14.64
2022-12-14T10:48:54.661Z,14.29
2022-12-14T10:54:00.721Z,13.78
2022-12-14T10:59:06.925Z,13.33
2022-12-14T11:04:13.010Z,13.12
2022-12-14T11:09:19.245Z,13.22
2022-12-14T11:14:25.331Z,11.89
2022-12-14T11:19:31.563Z,11.02
2022-12-14T11:24:38.017Z,12.05
2022-12-14T11:29:44.201Z,11.97
2022-12-14T11:34:50.264Z,11.47
2022-12-14T11:39:56.496Z,12.16
2022-12-14T11:45:02.554Z,12.15
2022-12-14T11:50:09.044Z,11.69
2022-12-14T11:55:15.880Z,12.33
2022-12-14T12:00:21.199Z,12.07
2022-12-14T12:05:27.393Z,12.41
2022-12-14T12:10:33.620Z,12.67
2022-12-14T12:15:39.836Z,13.28
2022-12-14T12:20:46.069Z,13.41
2022-12-14T12:25:51.664Z,14.45
2022-12-14T12:32:06.706Z,16.63
2022-12-14T12:37:26.837Z,14.56
2022-12-14T12:42:18.519Z,13.20
2022-12-14T12:47:30.196Z,14.72
2022-12-14T12:52:30.491Z,15.68
2022-12-14T12:57:36.548Z,14.23
2022-12-14T13:02:43.083Z,14.44
2022-12-14T13:07:48.426Z,15.42
2022-12-14T13:12:54.594Z,15.00
2022-12-14T13:18:00.746Z,13.60
2022-12-14T13:23:44.238Z,13.60
2022-12-14T13:28:12.517Z,16.06
2022-12-14T13:33:18.731Z,14.39
2022-12-14T13:38:30.997Z,14.53
2022-12-14T13:43:30.945Z,13.19
2022-12-14T13:48:37.300Z,13.67
2022-12-14T13:53:43.572Z,14.76
2022-12-14T13:58:49.200Z,13.94
2022-12-14T14:03:55.648Z,12.90
2022-12-14T14:09:01.583Z,12.44
2022-12-14T14:14:07.778Z,11.76
2022-12-14T14:19:14.654Z,10.71
2022-12-14T14:24:21.179Z,11.04
2022-12-14T14:29:27.579Z,10.00
2022-12-14T14:34:33.757Z,9.93
2022-12-14T14:39:57.622Z,10.38
2022-12-14T14:44:45.587Z,10.29
2022-12-14T14:49:51.654Z,10.35
2022-12-14T14:55:21.693Z,9.78
2022-12-14T15:00:03.537Z,10.50
2022-12-14T15:05:40.831Z,11.98
2022-12-14T15:10:20.724Z,10.04
2022-12-14T15:15:21.299Z,10.22
2022-12-14T15:20:27.394Z,10.30
2022-12-14T15:25:33.667Z,10.79
2022-12-14T15:30:40.618Z,10.90
2022-12-14T15:35:46.899Z,11.64
2022-12-14T15:40:52.484Z,11.53
2022-12-14T15:46:03.044Z,18.75
2022-12-14T15:51:04.352Z,13.11
2022-12-14T15:56:11.902Z,13.60
2022-12-14T16:01:16.161Z,12.86
2022-12-14T16:06:22.759Z,13.19
2022-12-14T16:11:28.902Z,13.72
2022-12-14T16:16:35.172Z,13.45
2022-12-14T16:21:41.176Z,13.08
2022-12-14T16:26:47.330Z,13.56
2022-12-14T16:31:53.511Z,13.77
2022-12-14T16:37:30.960Z,15.45
2022-12-14T16:42:05.398Z,15.91
2022-12-14T16:47:11.575Z,15.67
2022-12-14T16:52:17.655Z,16.17
2022-12-14T16:57:24.303Z,16.16
2022-12-14T17:02:30.736Z,16.45
2022-12-14T17:07:36.347Z,15.51
2022-12-14T17:12:42.921Z,17.35
2022-12-14T17:17:49.312Z,17.64
2022-12-14T17:22:55.166Z,17.31
2022-12-14T17:28:01.536Z,18.68
2022-12-14T17:33:07.742Z,17.76
2022-12-14T17:38:14.276Z,18.31
2022-12-14T17:43:20.424Z,18.71
2022-12-14T17:48:26.700Z,19.16
2022-12-14T17:53:33.260Z,21.43
2022-12-14T17:58:38.819Z,32.39
2022-12-14T18:03:45.357Z,24.13
2022-12-14T18:08:51.574Z,24.51
2022-12-14T18:13:57.651Z,21.90
2022-12-14T18:19:03.936Z,21.86
2022-12-14T18:24:13.054Z,21.68
2022-12-14T18:29:15.881Z,21.87
2022-12-14T18:34:22.457Z,22.68
2022-12-14T18:39:28.602Z,21.12
2022-12-14T18:44:34.718Z,22.32
2022-12-14T18:49:40.904Z,22.22
2022-12-14T18:54:47.415Z,22.15
2022-12-14T18:59:53.681Z,24.66
2022-12-14T19:04:59.857Z,27.92
2022-12-14T19:10:06.045Z,25.21
2022-12-14T19:15:12.200Z,24.37
2022-12-14T19:20:18.749Z,23.58
2022-12-14T19:25:24.813Z,21.95
2022-12-14T19:30:31.077Z,19.93
2022-12-14T19:35:37.138Z,18.03
2022-12-14T19:40:43.742Z,17.16
2022-12-14T19:45:50.226Z,15.63
2022-12-14T19:50:56.671Z,14.42
2022-12-14T19:56:02.818Z,14.31
2022-12-14T20:01:09.381Z,14.09
2022-12-14T20:06:15.517Z,14.55
2022-12-14T20:11:21.698Z,14.83
2022-12-14T20:16:28.233Z,14.60
2022-12-14T20:21:34.766Z,13.92
2022-12-14T20:26:40.865Z,13.38
2022-12-14T20:31:47.122Z,13.81
2022-12-14T20:36:53.119Z,13.29
2022-12-14T20:42:15.709Z,13.73
2022-12-14T20:47:22.667Z,12.93
2022-12-14T20:52:28.874Z,13.07
2022-12-14T20:57:35.035Z,13.37
2022-12-14T21:02:41.779Z,13.86
2022-12-14T21:07:48.020Z,13.72
2022-12-14T21:12:54.291Z,13.68
2022-12-14T21:18:00.362Z,13.09
2022-12-14T21:23:06.750Z,11.96
2022-12-14T21:28:13.645Z,12.21
2022-12-14T21:33:19.804Z,11.99
2022-12-14T21:38:26.184Z,11.77
2022-12-14T21:43:32.921Z,11.85
2022-12-14T21:48:38.030Z,11.88
2022-12-14T21:53:44.263Z,10.97
2022-12-14T21:58:53.103Z,11.61
2022-12-14T22:03:56.194Z,11.08
2022-12-14T22:09:02.306Z,10.18
2022-12-14T22:14:08.651Z,10.34
2022-12-14T22:19:14.798Z,9.67
2022-12-14T22:24:21.035Z,10.51
2022-12-14T22:29:27.273Z,10.26
2022-12-14T22:34:33.545Z,11.42
2022-12-14T22:39:39.674Z,10.92
2022-12-14T22:44:45.859Z,10.96
2022-12-14T22:50:47.878Z,12.61
2022-12-14T22:55:54.354Z,10.56
2022-12-14T23:01:00.444Z,10.76
2022-12-14T23:06:06.608Z,10.73
2022-12-14T23:11:12.705Z,11.35
2022-12-14T23:16:18.966Z,11.33
2022-12-14T23:21:25.058Z,10.44
2022-12-14T23:26:31.278Z,10.94
2022-12-14T23:31:37.441Z,11.35
2022-12-14T23:36:43.650Z,10.56
2022-12-14T23:41:49.863Z,10.62
2022-12-14T23:46:56.043Z,10.31
2022-12-14T23:52:02.111Z,10.39
2022-12-14T23:57:09.139Z,10.25
